CZVL

Edmonton / Villeneuve Airport

Edmonton, Alberta, Canada
METAR CZVL 221800Z AUTO 29017G30KT 9SM SCT041 08/M00 A3007 RMK SLP204
Observed Flight Rules
Apr-22 @ 18:00 UTC (24 minutes ago) Visual Flight Rules
Wind Visibility Clouds
290° at 17 knots
 Gusting to 30 knots
9 miles
  • Scattered at 4,100' AGL
Temperatures Readings
Current 8°C / 46°F
Dewpoint 0°C / 32°F
Humidity 57%
Altimeter 30.07" Hg
Pressure 1020.4 hPa
Elevation 686
METAR CZVL 221800Z AUTO 29017G30KT 9SM SCT041 08/M00 A3007 RMK SLP204
Observed Flight Rules
Apr-22 @ 18:00 UTC
(24 minutes ago)
VFR
Wind Visibility
290° at 17 knots
 Gusting to 30 knots
9 miles
Clouds
  • Scattered at 4,100' AGL
Temperature Dewpoint
8°C / 46°F 0°C / 32°F
Humidity Altimeter Pressure
57% 30.07" Hg 1020.4 hPa